createdAt,value
2022-11-01T00:02:03.347Z,100308.03
2022-11-01T00:04:29.795Z,100313.50
2022-11-01T00:06:56.195Z,100307.56
2022-11-01T00:09:22.920Z,100303.16
2022-11-01T00:11:49.647Z,100302.13
2022-11-01T00:14:17.819Z,100305.47
2022-11-01T00:16:44.219Z,100300.38
2022-11-01T00:19:11.044Z,100303.34
2022-11-01T00:21:37.738Z,100302.56
2022-11-01T00:24:04.390Z,100303.44
2022-11-01T00:26:31.050Z,100302.19
2022-11-01T00:28:57.441Z,100300.03
2022-11-01T00:31:24.173Z,100298.94
2022-11-01T00:33:50.611Z,100302.72
2022-11-01T00:36:17.035Z,100292.19
2022-11-01T00:38:43.427Z,100292.63
2022-11-01T00:41:09.948Z,100288.94
2022-11-01T00:43:36.716Z,100286.31
2022-11-01T00:46:03.741Z,100279.78
2022-11-01T00:48:30.393Z,100283.13
2022-11-01T00:50:56.767Z,100282.88
2022-11-01T00:53:23.129Z,100278.66
2022-11-01T00:55:49.495Z,100274.97
2022-11-01T00:58:15.908Z,100264.13
2022-11-01T01:00:42.346Z,100254.16
2022-11-01T01:03:08.780Z,100273.06
2022-11-01T01:05:35.849Z,100292.31
2022-11-01T01:08:02.779Z,100290.88
2022-11-01T01:10:29.466Z,100280.78
2022-11-01T01:12:55.834Z,100260.13
2022-11-01T01:15:22.351Z,100226.97
2022-11-01T01:17:48.745Z,100216.44
2022-11-01T01:20:15.306Z,100255.53
2022-11-01T01:22:42.547Z,100251.78
2022-11-01T01:25:09.914Z,100264.97
2022-11-01T01:27:36.381Z,100260.50
2022-11-01T01:30:03.579Z,100258.84
2022-11-01T01:32:29.978Z,100266.69
2022-11-01T01:34:56.363Z,100269.84
2022-11-01T01:37:22.751Z,100270.75
2022-11-01T01:39:49.120Z,100265.50
2022-11-01T01:42:26.916Z,100266.03
2022-11-01T01:44:53.343Z,100259.50
2022-11-01T01:47:30.913Z,100257.06
2022-11-01T01:50:32.428Z,100249.97
2022-11-01T01:53:23.758Z,100250.94
2022-11-01T01:55:59.919Z,100247.25
2022-11-01T01:58:30.568Z,100240.06
2022-11-01T02:00:57.642Z,100239.97
2022-11-01T02:03:27.665Z,100233.00
2022-11-01T02:05:58.038Z,100224.97
2022-11-01T02:08:30.277Z,100225.97
2022-11-01T02:10:59.429Z,100217.19
2022-11-01T02:13:25.800Z,100237.16
2022-11-01T02:16:16.838Z,100234.41
2022-11-01T02:18:54.150Z,100230.38
2022-11-01T02:21:44.533Z,100225.84
2022-11-01T02:24:23.021Z,100222.63
2022-11-01T02:27:10.432Z,100232.63
2022-11-01T02:29:55.399Z,100217.19
2022-11-01T02:32:29.129Z,100223.31
2022-11-01T02:34:59.304Z,100226.22
2022-11-01T02:37:29.859Z,100225.97
2022-11-01T02:40:01.227Z,100230.38
2022-11-01T02:42:31.334Z,100228.94
2022-11-01T02:45:04.224Z,100238.25
2022-11-01T02:47:31.889Z,100235.78
2022-11-01T02:50:05.013Z,100235.84
2022-11-01T02:52:33.110Z,100236.44
2022-11-01T02:55:01.358Z,100242.88
2022-11-01T02:57:32.063Z,100241.97
2022-11-01T03:00:05.078Z,100241.97
2022-11-01T03:02:40.535Z,100235.72
2022-11-01T03:05:11.585Z,100239.09
2022-11-01T03:07:39.707Z,100239.91
2022-11-01T03:10:06.693Z,100238.69
2022-11-01T03:12:34.885Z,100235.38
2022-11-01T03:15:20.715Z,100233.56
2022-11-01T03:18:14.050Z,100225.13
2022-11-01T03:20:47.416Z,100230.72
2022-11-01T03:23:30.633Z,100236.44
2022-11-01T03:26:00.194Z,100237.75
2022-11-01T03:28:31.318Z,100241.13
2022-11-01T03:31:02.719Z,100238.81
2022-11-01T03:33:30.692Z,100240.69
2022-11-01T03:36:04.019Z,100250.22
2022-11-01T03:38:34.552Z,100244.78
2022-11-01T03:41:04.633Z,100248.44
2022-11-01T03:43:33.643Z,100254.66
2022-11-01T03:46:00.098Z,100263.47
2022-11-01T03:48:26.487Z,100252.25
2022-11-01T03:50:56.144Z,100252.84
2022-11-01T03:53:23.359Z,100260.09
2022-11-01T03:55:49.919Z,100262.50
2022-11-01T03:58:16.782Z,100266.03
2022-11-01T04:00:45.283Z,100261.09
2022-11-01T04:03:12.574Z,100263.78
2022-11-01T04:05:40.767Z,100270.44
2022-11-01T04:08:08.113Z,100275.91
2022-11-01T04:10:34.662Z,100278.41
2022-11-01T04:13:01.752Z,100278.88
2022-11-01T04:15:47.535Z,100277.03
2022-11-01T04:18:36.478Z,100283.03
2022-11-01T04:21:08.392Z,100280.19
2022-11-01T04:23:35.081Z,100293.13
2022-11-01T04:26:02.456Z,100290.84
2022-11-01T04:28:29.874Z,100299.91
2022-11-01T04:30:56.381Z,100295.72
2022-11-01T04:33:22.805Z,100294.47
2022-11-01T04:35:49.270Z,100287.88
2022-11-01T04:38:16.036Z,100294.41
2022-11-01T04:40:43.041Z,100285.81
2022-11-01T04:43:10.057Z,100291.09
2022-11-01T04:45:36.370Z,100287.81
2022-11-01T04:48:13.371Z,100290.16
2022-11-01T04:50:43.175Z,100287.31
2022-11-01T04:53:11.522Z,100295.03
2022-11-01T04:55:37.939Z,100306.25
2022-11-01T04:58:06.504Z,100298.28
2022-11-01T05:00:33.648Z,100305.25
2022-11-01T05:03:05.274Z,100314.19
2022-11-01T05:05:32.445Z,100310.38
2022-11-01T05:08:07.311Z,100324.25
2022-11-01T05:10:34.552Z,100316.88
2022-11-01T05:13:01.697Z,100323.84
2022-11-01T05:15:28.417Z,100317.06
2022-11-01T05:17:54.762Z,100315.06
2022-11-01T05:20:21.154Z,100314.72
2022-11-01T05:22:48.235Z,100322.16
2022-11-01T05:25:14.998Z,100331.75
2022-11-01T05:27:41.370Z,100335.63
2022-11-01T05:30:08.552Z,100335.69
2022-11-01T05:32:37.931Z,100334.19
2022-11-01T05:35:04.781Z,100333.03
2022-11-01T05:37:31.261Z,100340.66
2022-11-01T05:39:57.701Z,100351.31
2022-11-01T05:42:24.102Z,100355.38
2022-11-01T05:44:50.458Z,100352.78
2022-11-01T05:47:17.552Z,100350.97
2022-11-01T05:49:44.009Z,100349.59
2022-11-01T05:52:10.517Z,100355.34
2022-11-01T05:54:36.882Z,100363.81
2022-11-01T05:57:05.467Z,100372.66
2022-11-01T05:59:31.821Z,100370.09
2022-11-01T06:01:58.262Z,100381.25
2022-11-01T06:04:24.766Z,100380.00
2022-11-01T06:06:51.116Z,100383.59
2022-11-01T06:09:17.470Z,100386.16
2022-11-01T06:11:43.819Z,100385.88
2022-11-01T06:14:10.450Z,100397.25
2022-11-01T06:16:36.803Z,100394.34
2022-11-01T06:19:03.157Z,100402.06
2022-11-01T06:21:30.502Z,100397.38
2022-11-01T06:23:56.984Z,100409.06
2022-11-01T06:26:23.325Z,100408.16
2022-11-01T06:28:49.734Z,100424.19
2022-11-01T06:31:16.242Z,100427.00
2022-11-01T06:33:42.609Z,100436.69
2022-11-01T06:36:09.151Z,100428.50
2022-11-01T06:38:35.611Z,100435.19
2022-11-01T06:41:03.055Z,100437.88
2022-11-01T06:43:29.586Z,100447.09
2022-11-01T06:45:59.498Z,100455.91
2022-11-01T06:48:25.929Z,100459.75
2022-11-01T06:50:53.859Z,100464.06
2022-11-01T06:53:20.226Z,100465.41
2022-11-01T06:55:46.579Z,100463.16
2022-11-01T06:58:12.981Z,100475.19
2022-11-01T07:00:39.345Z,100487.38
2022-11-01T07:03:07.847Z,100487.44
2022-11-01T07:05:37.216Z,100499.31
2022-11-01T07:08:07.950Z,100511.84
2022-11-01T07:10:36.769Z,100510.59
2022-11-01T07:13:04.508Z,100533.16
2022-11-01T07:15:31.206Z,100538.97
2022-11-01T07:17:58.818Z,100545.53
2022-11-01T07:20:27.287Z,100559.22
2022-11-01T07:23:01.612Z,100562.94
2022-11-01T07:25:28.994Z,100573.59
2022-11-01T07:27:55.609Z,100570.69
2022-11-01T07:30:22.283Z,100580.75
2022-11-01T07:32:48.923Z,100585.97
2022-11-01T07:35:15.454Z,100591.47
2022-11-01T07:37:41.833Z,100594.78
2022-11-01T07:40:08.630Z,100592.63
2022-11-01T07:42:41.189Z,100599.91
2022-11-01T07:45:12.756Z,100613.47
2022-11-01T07:47:39.422Z,100616.81
2022-11-01T07:50:06.264Z,100623.72
2022-11-01T07:52:33.945Z,100626.75
2022-11-01T07:55:00.496Z,100628.47
2022-11-01T07:57:27.109Z,100647.38
2022-11-01T07:59:53.506Z,100641.44
2022-11-01T08:02:20.206Z,100654.69
2022-11-01T08:04:46.694Z,100640.03
2022-11-01T08:07:13.057Z,100656.56
2022-11-01T08:09:39.443Z,100656.78
2022-11-01T08:12:06.846Z,100654.75
2022-11-01T08:14:33.218Z,100670.19
2022-11-01T08:17:01.603Z,100655.59
2022-11-01T08:19:28.182Z,100670.91
2022-11-01T08:21:57.699Z,100662.38
2022-11-01T08:24:24.153Z,100667.31
2022-11-01T08:26:51.784Z,100676.72
2022-11-01T08:29:18.241Z,100685.19
2022-11-01T08:31:45.266Z,100676.78
2022-11-01T08:34:16.059Z,100697.91
2022-11-01T08:36:43.163Z,100687.63
2022-11-01T08:41:41.166Z,100697.41
2022-11-01T08:44:07.631Z,100694.97
2022-11-01T08:46:33.974Z,100700.78
2022-11-01T08:49:00.479Z,100718.38
2022-11-01T08:51:27.716Z,100714.53
2022-11-01T08:53:55.699Z,100722.88
2022-11-01T08:56:24.628Z,100717.69
2022-11-01T08:58:51.770Z,100711.00
2022-11-01T09:01:18.294Z,100723.03
2022-11-01T09:03:44.837Z,100721.56
2022-11-01T09:06:11.322Z,100743.72
2022-11-01T09:08:37.675Z,100739.84
2022-11-01T09:11:05.967Z,100747.34
2022-11-01T09:13:33.319Z,100744.66
2022-11-01T09:16:02.343Z,100755.09
2022-11-01T09:18:29.212Z,100762.19
2022-11-01T09:20:56.221Z,100762.66
2022-11-01T09:23:22.874Z,100769.81
2022-11-01T09:25:49.235Z,100762.06
2022-11-01T09:28:15.613Z,100772.19
2022-11-01T09:30:49.657Z,100762.75
2022-11-01T09:33:16.538Z,100770.66
2022-11-01T09:35:47.678Z,100768.97
2022-11-01T09:38:16.326Z,100773.22
2022-11-01T09:40:46.618Z,100770.53
2022-11-01T09:43:20.708Z,100777.22
2022-11-01T09:45:48.620Z,100775.81
2022-11-01T09:48:15.655Z,100773.59
2022-11-01T09:50:43.828Z,100787.47
2022-11-01T09:53:18.190Z,100794.94
2022-11-01T09:56:10.242Z,100800.75
2022-11-01T09:59:01.488Z,100795.91
2022-11-01T10:01:39.442Z,100796.50
2022-11-01T10:04:44.848Z,100804.03
2022-11-01T10:07:13.766Z,100795.91
2022-11-01T10:09:50.738Z,100799.34
2022-11-01T10:12:33.742Z,100789.63
2022-11-01T10:15:18.708Z,100797.13
2022-11-01T10:17:52.405Z,100794.16
2022-11-01T10:20:24.823Z,100799.28
2022-11-01T10:22:51.256Z,100802.28
2022-11-01T10:25:29.340Z,100797.69
2022-11-01T10:27:58.675Z,100803.88
2022-11-01T10:30:25.554Z,100803.06
2022-11-01T10:33:03.685Z,100805.91
2022-11-01T10:35:31.424Z,100791.41
2022-11-01T10:38:19.321Z,100793.75
2022-11-01T10:40:59.446Z,100790.75
2022-11-01T10:43:25.996Z,100803.50
2022-11-01T10:45:55.227Z,100794.00
2022-11-01T10:48:29.658Z,100798.38
2022-11-01T10:51:00.213Z,100800.09
2022-11-01T10:53:28.651Z,100788.09
2022-11-01T10:55:58.590Z,100788.44
2022-11-01T10:58:36.201Z,100795.38
2022-11-01T11:01:05.474Z,100805.56
2022-11-01T11:03:32.210Z,100807.47
2022-11-01T11:06:01.565Z,100807.03
2022-11-01T11:08:28.011Z,100801.13
2022-11-01T11:10:58.006Z,100794.31
2022-11-01T11:13:25.193Z,100798.19
2022-11-01T11:15:54.844Z,100798.97
2022-11-01T11:18:25.598Z,100806.09
2022-11-01T11:20:59.929Z,100798.13
2022-11-01T11:23:27.660Z,100796.00
2022-11-01T11:26:00.813Z,100795.66
2022-11-01T11:28:30.897Z,100798.22
2022-11-01T11:31:13.374Z,100807.44
2022-11-01T11:33:48.159Z,100802.03
2022-11-01T11:36:14.835Z,100811.25
2022-11-01T11:38:51.243Z,100819.28
2022-11-01T11:41:47.076Z,100810.47
2022-11-01T11:44:35.084Z,100821.50
2022-11-01T11:47:03.291Z,100815.53
2022-11-01T11:49:29.812Z,100822.06
2022-11-01T11:51:56.205Z,100825.88
2022-11-01T11:54:32.068Z,100838.28
2022-11-01T11:57:15.156Z,100823.69
2022-11-01T11:59:43.094Z,100816.28
2022-11-01T12:02:18.617Z,100815.16
2022-11-01T12:04:58.641Z,100826.91
2022-11-01T12:07:31.578Z,100831.13
2022-11-01T12:10:02.260Z,100822.50
2022-11-01T12:12:31.225Z,100822.50
2022-11-01T12:14:58.588Z,100825.25
2022-11-01T12:17:31.628Z,100818.69
2022-11-01T12:20:09.475Z,100820.78
2022-11-01T12:22:37.286Z,100819.50
2022-11-01T12:25:13.053Z,100820.59
2022-11-01T12:27:48.966Z,100824.09
2022-11-01T12:30:19.793Z,100814.72
2022-11-01T12:32:59.905Z,100819.34
2022-11-01T12:35:37.651Z,100821.78
2022-11-01T12:38:20.561Z,100823.56
2022-11-01T12:40:50.031Z,100827.34
2022-11-01T12:43:22.693Z,100825.72
2022-11-01T12:45:53.942Z,100825.03
2022-11-01T12:48:26.301Z,100829.13
2022-11-01T12:51:18.739Z,100825.63
2022-11-01T12:53:51.076Z,100831.22
2022-11-01T12:56:17.937Z,100830.34
2022-11-01T12:58:44.343Z,100836.31
2022-11-01T13:01:23.422Z,100833.00
2022-11-01T13:04:06.908Z,100832.84
2022-11-01T13:06:59.765Z,100831.84
2022-11-01T13:09:32.131Z,100829.44
2022-11-01T13:12:07.988Z,100832.28
2022-11-01T13:14:45.426Z,100828.53
2022-11-01T13:17:17.613Z,100818.59
2022-11-01T13:20:05.430Z,100826.09
2022-11-01T13:22:40.071Z,100822.13
2022-11-01T13:25:31.086Z,100820.47
2022-11-01T13:28:13.050Z,100831.84
2022-11-01T13:30:46.938Z,100822.88
2022-11-01T13:33:21.366Z,100823.69
2022-11-01T13:36:02.913Z,100828.00
2022-11-01T13:38:42.144Z,100823.44
2022-11-01T13:41:19.919Z,100834.72
2022-11-01T13:43:54.152Z,100817.13
2022-11-01T13:46:32.493Z,100819.81
2022-11-01T13:49:04.790Z,100811.56
2022-11-01T13:51:38.085Z,100813.31
2022-11-01T13:54:27.659Z,100811.63
2022-11-01T13:56:58.938Z,100826.47
2022-11-01T13:59:45.204Z,100822.94
2022-11-01T14:02:23.955Z,100828.94
2022-11-01T14:05:11.125Z,100824.59
2022-11-01T14:07:43.575Z,100812.50
2022-11-01T14:10:16.884Z,100816.56
2022-11-01T14:12:48.247Z,100822.78
2022-11-01T14:15:21.983Z,100820.63
2022-11-01T14:17:57.630Z,100826.19
2022-11-01T14:20:31.455Z,100827.63
2022-11-01T14:22:58.890Z,100820.81
2022-11-01T14:25:30.002Z,100825.72
2022-11-01T14:28:18.319Z,100836.13
2022-11-01T14:30:47.290Z,100823.66
2022-11-01T14:33:15.977Z,100821.59
2022-11-01T14:35:46.876Z,100818.31
2022-11-01T14:38:15.393Z,100823.13
2022-11-01T14:40:48.277Z,100826.94
2022-11-01T14:43:21.356Z,100831.00
2022-11-01T14:45:53.139Z,100831.97
2022-11-01T14:48:29.060Z,100828.47
2022-11-01T14:51:02.535Z,100835.91
2022-11-01T14:53:34.739Z,100826.59
2022-11-01T14:56:04.990Z,100828.28
2022-11-01T14:58:31.512Z,100830.59
2022-11-01T15:01:11.154Z,100825.16
2022-11-01T15:03:37.602Z,100830.53
2022-11-01T15:06:04.693Z,100828.75
2022-11-01T15:08:37.509Z,100831.31
2022-11-01T15:11:04.604Z,100841.13
2022-11-01T15:13:33.600Z,100828.91
2022-11-01T15:16:04.048Z,100832.44
2022-11-01T15:18:31.539Z,100831.16
2022-11-01T15:20:59.126Z,100831.56
2022-11-01T15:23:32.344Z,100834.25
2022-11-01T15:26:02.697Z,100837.31
2022-11-01T15:28:37.118Z,100840.09
2022-11-01T15:31:06.257Z,100847.13
2022-11-01T15:33:36.026Z,100855.28
2022-11-01T15:36:08.617Z,100845.72
2022-11-01T15:38:56.251Z,100845.88
2022-11-01T15:41:27.126Z,100843.13
2022-11-01T15:43:58.517Z,100840.63
2022-11-01T15:46:27.816Z,100846.16
2022-11-01T15:48:56.643Z,100848.03
2022-11-01T15:51:25.960Z,100848.47
2022-11-01T15:54:01.095Z,100854.41
2022-11-01T15:56:40.723Z,100848.25
2022-11-01T15:59:20.683Z,100852.75
2022-11-01T16:01:48.251Z,100853.47
2022-11-01T16:04:15.842Z,100851.69
2022-11-01T16:06:57.246Z,100855.22
2022-11-01T16:09:40.220Z,100855.56
2022-11-01T16:12:15.368Z,100857.63
2022-11-01T16:14:41.840Z,100851.44
2022-11-01T16:17:25.787Z,100856.72
2022-11-01T16:19:52.739Z,100855.88
2022-11-01T16:22:45.162Z,100860.38
2022-11-01T16:25:11.464Z,100862.16
2022-11-01T16:27:51.187Z,100866.66
2022-11-01T16:30:48.040Z,100861.09
2022-11-01T16:33:33.508Z,100859.59
2022-11-01T16:36:02.983Z,100863.28
2022-11-01T16:38:39.484Z,100861.56
2022-11-01T16:41:15.241Z,100863.66
2022-11-01T16:43:41.984Z,100861.66
2022-11-01T16:46:08.387Z,100868.13
2022-11-01T16:48:54.475Z,100879.41
2022-11-01T16:51:24.811Z,100871.34
2022-11-01T16:53:51.453Z,100876.19
2022-11-01T16:56:40.746Z,100872.06
2022-11-01T16:59:08.955Z,100882.88
2022-11-01T17:01:36.543Z,100879.16
2022-11-01T17:04:03.323Z,100886.22
2022-11-01T17:06:32.417Z,100889.44
2022-11-01T17:09:02.760Z,100888.31
2022-11-01T17:11:29.117Z,100898.09
2022-11-01T17:13:55.483Z,100897.88
2022-11-01T17:16:24.067Z,100897.66
2022-11-01T17:18:54.018Z,100904.72
2022-11-01T17:21:21.046Z,100903.28
2022-11-01T17:23:48.099Z,100900.41
2022-11-01T17:26:16.062Z,100906.31
2022-11-01T17:28:43.217Z,100903.97
2022-11-01T17:31:11.896Z,100900.59
2022-11-01T17:33:38.328Z,100903.53
2022-11-01T17:36:05.027Z,100898.72
2022-11-01T17:38:32.686Z,100902.38
2022-11-01T17:40:59.849Z,100907.94
2022-11-01T17:43:26.279Z,100906.41
2022-11-01T17:45:52.723Z,100912.03
2022-11-01T17:48:19.270Z,100907.34
2022-11-01T17:50:45.878Z,100908.81
2022-11-01T17:53:14.642Z,100910.94
2022-11-01T17:55:41.968Z,100920.13
2022-11-01T17:58:09.632Z,100913.41
2022-11-01T18:00:39.971Z,100922.59
2022-11-01T18:03:06.313Z,100918.00
2022-11-01T18:05:32.674Z,100913.00
2022-11-01T18:07:59.891Z,100917.84
2022-11-01T18:10:40.032Z,100919.63
2022-11-01T18:13:33.228Z,100924.13
2022-11-01T18:16:25.150Z,100925.44
2022-11-01T18:19:19.511Z,100934.28
2022-11-01T18:21:48.930Z,100929.84
2022-11-01T18:24:24.486Z,100928.53
2022-11-01T18:26:51.349Z,100932.63
2022-11-01T18:29:22.098Z,100923.44
2022-11-01T18:32:12.243Z,100929.16
2022-11-01T18:34:44.588Z,100924.38
2022-11-01T18:37:26.289Z,100921.97
2022-11-01T18:39:57.296Z,100934.78
2022-11-01T18:42:25.459Z,100929.56
2022-11-01T18:44:53.297Z,100929.38
2022-11-01T18:47:24.874Z,100928.28
2022-11-01T18:49:53.026Z,100926.38
2022-11-01T18:52:19.462Z,100928.78
2022-11-01T18:54:56.662Z,100922.47
2022-11-01T18:57:24.471Z,100921.19
2022-11-01T18:59:52.837Z,100920.75
2022-11-01T19:02:27.109Z,100921.78
2022-11-01T19:05:18.153Z,100927.50
2022-11-01T19:08:09.712Z,100918.19
2022-11-01T19:10:32.953Z,100916.75
2022-11-01T19:12:59.437Z,100928.78
2022-11-01T19:15:28.157Z,100931.78
2022-11-01T19:17:58.698Z,100916.75
2022-11-01T19:20:31.178Z,100929.31
2022-11-01T19:23:03.078Z,100921.59
2022-11-01T19:25:33.902Z,100928.00
2022-11-01T19:28:38.541Z,100932.13
2022-11-01T19:31:14.909Z,100931.19
2022-11-01T19:33:44.602Z,100935.56
2022-11-01T19:36:19.101Z,100936.09
2022-11-01T19:38:46.261Z,100929.78
2022-11-01T19:41:15.946Z,100928.56
2022-11-01T19:43:42.435Z,100925.34
2022-11-01T19:46:13.512Z,100926.25
2022-11-01T19:48:40.126Z,100931.69
2022-11-01T19:51:33.205Z,100918.94
2022-11-01T19:53:59.639Z,100932.97
2022-11-01T19:56:29.252Z,100916.56
2022-11-01T19:58:59.971Z,100931.75
2022-11-01T20:01:41.256Z,100924.44
2022-11-01T20:04:24.447Z,100925.03
2022-11-01T20:06:55.914Z,100933.94
2022-11-01T20:09:24.037Z,100930.63
2022-11-01T20:11:50.789Z,100925.75
2022-11-01T20:14:17.362Z,100921.34
2022-11-01T20:16:43.852Z,100930.34
2022-11-01T20:19:13.218Z,100931.34
2022-11-01T20:21:42.834Z,100921.94
2022-11-01T20:24:09.249Z,100923.53
2022-11-01T20:26:35.679Z,100923.53
2022-11-01T20:29:02.291Z,100925.53
2022-11-01T20:31:29.224Z,100924.63
2022-11-01T20:33:55.900Z,100924.63
2022-11-01T20:36:22.341Z,100920.53
2022-11-01T20:38:49.182Z,100917.34
2022-11-01T20:41:15.613Z,100924.00
2022-11-01T20:43:42.125Z,100919.84
2022-11-01T20:46:08.532Z,100923.41
2022-11-01T20:48:34.936Z,100917.63
2022-11-01T20:51:01.543Z,100916.72
2022-11-01T20:53:29.825Z,100925.63
2022-11-01T20:55:56.446Z,100928.59
2022-11-01T20:58:22.848Z,100924.72
2022-11-01T21:00:51.332Z,100922.75
2022-11-01T21:03:19.450Z,100924.34
2022-11-01T21:05:48.130Z,100927.66
2022-11-01T21:08:27.953Z,100923.25
2022-11-01T21:10:59.458Z,100912.22
2022-11-01T21:13:29.041Z,100914.91
2022-11-01T21:15:59.889Z,100923.25
2022-11-01T21:18:38.195Z,100914.44
2022-11-01T21:21:25.210Z,100914.53
2022-11-01T21:23:51.558Z,100925.31
2022-11-01T21:26:31.737Z,100926.31
2022-11-01T21:29:15.520Z,100924.00
2022-11-01T21:31:42.561Z,100914.19
2022-11-01T21:34:09.871Z,100923.53
2022-11-01T21:36:39.591Z,100911.41
2022-11-01T21:39:18.968Z,100900.75
2022-11-01T21:41:46.919Z,100906.94
2022-11-01T21:44:39.617Z,100916.72
2022-11-01T21:47:08.777Z,100897.22
2022-11-01T21:49:36.481Z,100906.25
2022-11-01T21:52:04.906Z,100905.03
2022-11-01T21:54:33.892Z,100902.53
2022-11-01T21:57:01.501Z,100908.72
2022-11-01T21:59:28.482Z,100906.31
2022-11-01T22:01:55.911Z,100908.91
2022-11-01T22:04:24.741Z,100904.31
2022-11-01T22:06:54.179Z,100898.13
2022-11-01T22:09:21.126Z,100904.00
2022-11-01T22:11:47.570Z,100885.91
2022-11-01T22:14:13.921Z,100892.94
2022-11-01T22:16:40.288Z,100890.22
2022-11-01T22:19:06.865Z,100888.41
2022-11-01T22:21:33.614Z,100890.69
2022-11-01T22:24:00.188Z,100891.28
2022-11-01T22:26:26.620Z,100888.91
2022-11-01T22:28:53.022Z,100891.13
2022-11-01T22:31:19.791Z,100882.50
2022-11-01T22:33:49.567Z,100882.09
2022-11-01T22:36:22.057Z,100874.41
2022-11-01T22:38:48.731Z,100869.31
2022-11-01T22:41:37.237Z,100873.03
2022-11-01T22:44:11.238Z,100870.50
2022-11-01T22:46:53.657Z,100866.03
2022-11-01T22:49:24.341Z,100877.00
2022-11-01T22:52:03.837Z,100864.31
2022-11-01T22:54:38.493Z,100866.41
2022-11-01T22:57:07.831Z,100862.72
2022-11-01T22:59:39.590Z,100861.31
2022-11-01T23:02:28.839Z,100867.81
2022-11-01T23:05:07.498Z,100864.41
2022-11-01T23:07:44.226Z,100867.13
2022-11-01T23:10:31.874Z,100861.31
2022-11-01T23:13:35.251Z,100858.81
2022-11-01T23:16:08.818Z,100860.03
2022-11-01T23:18:42.252Z,100860.63
2022-11-01T23:21:09.509Z,100852.56
2022-11-01T23:23:37.832Z,100856.44
2022-11-01T23:26:04.332Z,100863.53
2022-11-01T23:28:34.884Z,100856.84
2022-11-01T23:31:02.827Z,100855.66
2022-11-01T23:33:36.598Z,100859.56
2022-11-01T23:36:03.232Z,100848.56
2022-11-01T23:38:48.812Z,100846.94
2022-11-01T23:41:23.448Z,100832.53
2022-11-01T23:43:52.132Z,100832.25
2022-11-01T23:46:18.894Z,100823.78
2022-11-01T23:48:45.261Z,100829.34
2022-11-01T23:51:16.845Z,100834.44
2022-11-01T23:53:44.499Z,100832.16
2022-11-01T23:56:12.429Z,100832.16
2022-11-01T23:58:38.887Z,100837.38
